sensor_id;sensor_type;location;lat;lon;timestamp;P1;durP1;ratioP1;P2;durP2;ratioP2
12958;SDS011;6544;51.666;6.634;2023-05-13T00:00:44;7.80;;;7.00;;
12958;SDS011;6544;51.666;6.634;2023-05-13T00:03:11;9.95;;;6.55;;
12958;SDS011;6544;51.666;6.634;2023-05-13T00:05:39;7.55;;;6.75;;
12958;SDS011;6544;51.666;6.634;2023-05-13T00:08:06;7.28;;;6.40;;
12958;SDS011;6544;51.666;6.634;2023-05-13T00:10:33;8.63;;;6.80;;
12958;SDS011;6544;51.666;6.634;2023-05-13T00:13:00;8.27;;;6.78;;
12958;SDS011;6544;51.666;6.634;2023-05-13T00:15:27;7.35;;;6.68;;
12958;SDS011;6544;51.666;6.634;2023-05-13T00:17:54;7.75;;;6.63;;
12958;SDS011;6544;51.666;6.634;2023-05-13T00:20:21;8.25;;;6.68;;
12958;SDS011;6544;51.666;6.634;2023-05-13T00:22:50;7.43;;;6.65;;
12958;SDS011;6544;51.666;6.634;2023-05-13T00:25:17;7.85;;;6.78;;
12958;SDS011;6544;51.666;6.634;2023-05-13T00:27:44;7.40;;;6.70;;
12958;SDS011;6544;51.666;6.634;2023-05-13T00:30:11;7.85;;;6.53;;
12958;SDS011;6544;51.666;6.634;2023-05-13T00:32:38;7.28;;;6.57;;
12958;SDS011;6544;51.666;6.634;2023-05-13T00:35:05;7.30;;;6.30;;
12958;SDS011;6544;51.666;6.634;2023-05-13T00:37:32;10.38;;;6.70;;
12958;SDS011;6544;51.666;6.634;2023-05-13T00:40:00;7.75;;;6.95;;
12958;SDS011;6544;51.666;6.634;2023-05-13T00:42:27;8.98;;;6.70;;
12958;SDS011;6544;51.666;6.634;2023-05-13T00:44:54;7.85;;;7.05;;
12958;SDS011;6544;51.666;6.634;2023-05-13T00:47:21;7.65;;;6.43;;
12958;SDS011;6544;51.666;6.634;2023-05-13T00:49:48;8.48;;;6.70;;
12958;SDS011;6544;51.666;6.634;2023-05-13T00:52:15;9.60;;;6.50;;
12958;SDS011;6544;51.666;6.634;2023-05-13T00:54:41;9.85;;;7.03;;
12958;SDS011;6544;51.666;6.634;2023-05-13T00:57:10;7.50;;;6.70;;
12958;SDS011;6544;51.666;6.634;2023-05-13T00:59:36;8.70;;;6.78;;
12958;SDS011;6544;51.666;6.634;2023-05-13T01:02:06;7.65;;;6.95;;
12958;SDS011;6544;51.666;6.634;2023-05-13T01:04:40;8.05;;;6.60;;
12958;SDS011;6544;51.666;6.634;2023-05-13T01:07:20;9.90;;;7.20;;
12958;SDS011;6544;51.666;6.634;2023-05-13T01:09:56;7.93;;;6.53;;
12958;SDS011;6544;51.666;6.634;2023-05-13T01:12:31;7.03;;;6.32;;
12958;SDS011;6544;51.666;6.634;2023-05-13T01:15:03;10.27;;;6.72;;
12958;SDS011;6544;51.666;6.634;2023-05-13T01:17:32;9.43;;;6.70;;
12958;SDS011;6544;51.666;6.634;2023-05-13T01:20:03;8.27;;;6.45;;
12958;SDS011;6544;51.666;6.634;2023-05-13T01:22:33;8.40;;;6.72;;
12958;SDS011;6544;51.666;6.634;2023-05-13T01:25:03;8.07;;;6.57;;
12958;SDS011;6544;51.666;6.634;2023-05-13T01:27:30;7.28;;;6.18;;
12958;SDS011;6544;51.666;6.634;2023-05-13T01:29:56;9.30;;;7.07;;
12958;SDS011;6544;51.666;6.634;2023-05-13T01:32:24;7.60;;;6.35;;
12958;SDS011;6544;51.666;6.634;2023-05-13T01:34:51;9.70;;;6.65;;
12958;SDS011;6544;51.666;6.634;2023-05-13T01:37:18;7.65;;;6.85;;
12958;SDS011;6544;51.666;6.634;2023-05-13T01:39:47;9.35;;;6.70;;
12958;SDS011;6544;51.666;6.634;2023-05-13T01:42:15;10.30;;;7.10;;
12958;SDS011;6544;51.666;6.634;2023-05-13T01:44:42;7.93;;;6.80;;
12958;SDS011;6544;51.666;6.634;2023-05-13T01:47:08;8.55;;;7.45;;
12958;SDS011;6544;51.666;6.634;2023-05-13T01:49:35;9.45;;;7.90;;
12958;SDS011;6544;51.666;6.634;2023-05-13T01:52:02;9.35;;;7.80;;
12958;SDS011;6544;51.666;6.634;2023-05-13T01:54:30;10.00;;;7.78;;
12958;SDS011;6544;51.666;6.634;2023-05-13T01:56:58;7.80;;;6.75;;
12958;SDS011;6544;51.666;6.634;2023-05-13T01:59:25;12.27;;;7.55;;
12958;SDS011;6544;51.666;6.634;2023-05-13T02:01:52;9.35;;;7.38;;
12958;SDS011;6544;51.666;6.634;2023-05-13T02:04:18;10.38;;;7.38;;
12958;SDS011;6544;51.666;6.634;2023-05-13T02:06:46;10.68;;;7.28;;
12958;SDS011;6544;51.666;6.634;2023-05-13T02:09:12;9.38;;;7.50;;
12958;SDS011;6544;51.666;6.634;2023-05-13T02:11:40;9.18;;;6.90;;
12958;SDS011;6544;51.666;6.634;2023-05-13T02:14:08;10.13;;;7.90;;
12958;SDS011;6544;51.666;6.634;2023-05-13T02:16:35;7.35;;;6.63;;
12958;SDS011;6544;51.666;6.634;2023-05-13T02:19:02;8.07;;;6.28;;
12958;SDS011;6544;51.666;6.634;2023-05-13T02:21:29;7.55;;;6.82;;
12958;SDS011;6544;51.666;6.634;2023-05-13T02:23:56;9.60;;;7.00;;
12958;SDS011;6544;51.666;6.634;2023-05-13T02:26:23;7.47;;;6.53;;
12958;SDS011;6544;51.666;6.634;2023-05-13T02:28:50;10.73;;;6.70;;
12958;SDS011;6544;51.666;6.634;2023-05-13T02:31:18;8.48;;;6.85;;
12958;SDS011;6544;51.666;6.634;2023-05-13T02:33:45;9.63;;;6.82;;
12958;SDS011;6544;51.666;6.634;2023-05-13T02:36:12;9.38;;;6.97;;
12958;SDS011;6544;51.666;6.634;2023-05-13T02:38:38;8.13;;;7.32;;
12958;SDS011;6544;51.666;6.634;2023-05-13T02:41:05;8.45;;;7.03;;
12958;SDS011;6544;51.666;6.634;2023-05-13T02:43:32;7.88;;;6.72;;
12958;SDS011;6544;51.666;6.634;2023-05-13T02:45:59;7.55;;;6.78;;
12958;SDS011;6544;51.666;6.634;2023-05-13T02:48:29;10.75;;;7.00;;
12958;SDS011;6544;51.666;6.634;2023-05-13T02:50:56;10.43;;;6.80;;
12958;SDS011;6544;51.666;6.634;2023-05-13T02:53:22;8.93;;;6.90;;
12958;SDS011;6544;51.666;6.634;2023-05-13T02:55:50;9.75;;;7.05;;
12958;SDS011;6544;51.666;6.634;2023-05-13T02:58:16;7.75;;;6.72;;
12958;SDS011;6544;51.666;6.634;2023-05-13T03:00:43;13.38;;;7.00;;
12958;SDS011;6544;51.666;6.634;2023-05-13T03:03:10;11.63;;;6.63;;
12958;SDS011;6544;51.666;6.634;2023-05-13T03:05:38;9.05;;;6.63;;
12958;SDS011;6544;51.666;6.634;2023-05-13T03:08:05;8.02;;;6.70;;
12958;SDS011;6544;51.666;6.634;2023-05-13T03:10:32;7.55;;;6.65;;
12958;SDS011;6544;51.666;6.634;2023-05-13T03:12:59;9.15;;;6.55;;
12958;SDS011;6544;51.666;6.634;2023-05-13T03:15:26;8.02;;;6.63;;
12958;SDS011;6544;51.666;6.634;2023-05-13T03:17:53;8.45;;;6.80;;
12958;SDS011;6544;51.666;6.634;2023-05-13T03:20:21;8.63;;;6.88;;
12958;SDS011;6544;51.666;6.634;2023-05-13T03:22:50;11.82;;;7.38;;
12958;SDS011;6544;51.666;6.634;2023-05-13T03:25:17;11.80;;;7.18;;
12958;SDS011;6544;51.666;6.634;2023-05-13T03:27:43;6.90;;;6.20;;
12958;SDS011;6544;51.666;6.634;2023-05-13T03:30:10;9.82;;;7.53;;
12958;SDS011;6544;51.666;6.634;2023-05-13T03:32:38;7.53;;;6.80;;
12958;SDS011;6544;51.666;6.634;2023-05-13T03:35:05;7.88;;;6.80;;
12958;SDS011;6544;51.666;6.634;2023-05-13T03:37:32;8.07;;;7.10;;
12958;SDS011;6544;51.666;6.634;2023-05-13T03:40:00;8.90;;;6.90;;
12958;SDS011;6544;51.666;6.634;2023-05-13T03:42:28;8.57;;;7.22;;
12958;SDS011;6544;51.666;6.634;2023-05-13T03:44:55;10.98;;;6.93;;
12958;SDS011;6544;51.666;6.634;2023-05-13T03:47:22;7.65;;;6.85;;
12958;SDS011;6544;51.666;6.634;2023-05-13T03:49:49;8.75;;;7.47;;
12958;SDS011;6544;51.666;6.634;2023-05-13T03:52:16;7.38;;;6.60;;
12958;SDS011;6544;51.666;6.634;2023-05-13T03:54:43;10.40;;;6.85;;
12958;SDS011;6544;51.666;6.634;2023-05-13T03:57:11;8.77;;;7.63;;
12958;SDS011;6544;51.666;6.634;2023-05-13T03:59:38;11.05;;;7.40;;
12958;SDS011;6544;51.666;6.634;2023-05-13T04:02:05;8.65;;;6.97;;
12958;SDS011;6544;51.666;6.634;2023-05-13T04:04:34;9.23;;;7.13;;
12958;SDS011;6544;51.666;6.634;2023-05-13T04:07:01;8.43;;;7.47;;
12958;SDS011;6544;51.666;6.634;2023-05-13T04:09:28;10.05;;;7.25;;
12958;SDS011;6544;51.666;6.634;2023-05-13T04:11:55;10.15;;;7.80;;
12958;SDS011;6544;51.666;6.634;2023-05-13T04:14:23;9.40;;;6.72;;
12958;SDS011;6544;51.666;6.634;2023-05-13T04:16:50;12.10;;;7.97;;
12958;SDS011;6544;51.666;6.634;2023-05-13T04:19:17;10.82;;;7.78;;
12958;SDS011;6544;51.666;6.634;2023-05-13T04:21:43;10.60;;;7.47;;
12958;SDS011;6544;51.666;6.634;2023-05-13T04:24:10;9.55;;;8.02;;
12958;SDS011;6544;51.666;6.634;2023-05-13T04:26:37;8.65;;;7.82;;
12958;SDS011;6544;51.666;6.634;2023-05-13T04:29:04;8.25;;;7.28;;
12958;SDS011;6544;51.666;6.634;2023-05-13T04:31:32;9.48;;;8.52;;
12958;SDS011;6544;51.666;6.634;2023-05-13T04:33:59;12.40;;;8.73;;
12958;SDS011;6544;51.666;6.634;2023-05-13T04:36:26;11.77;;;8.75;;
12958;SDS011;6544;51.666;6.634;2023-05-13T04:38:53;8.70;;;7.82;;
12958;SDS011;6544;51.666;6.634;2023-05-13T04:41:20;14.25;;;9.52;;
12958;SDS011;6544;51.666;6.634;2023-05-13T04:43:47;12.07;;;8.77;;
12958;SDS011;6544;51.666;6.634;2023-05-13T04:46:14;10.38;;;9.10;;
12958;SDS011;6544;51.666;6.634;2023-05-13T04:48:42;11.77;;;8.80;;
12958;SDS011;6544;51.666;6.634;2023-05-13T04:51:12;11.35;;;8.68;;
12958;SDS011;6544;51.666;6.634;2023-05-13T04:53:39;9.35;;;8.15;;
12958;SDS011;6544;51.666;6.634;2023-05-13T04:56:06;10.02;;;8.90;;
12958;SDS011;6544;51.666;6.634;2023-05-13T04:58:33;13.77;;;11.23;;
12958;SDS011;6544;51.666;6.634;2023-05-13T05:01:00;21.58;;;17.58;;
12958;SDS011;6544;51.666;6.634;2023-05-13T05:03:27;16.00;;;13.98;;
12958;SDS011;6544;51.666;6.634;2023-05-13T05:05:55;11.35;;;10.15;;
12958;SDS011;6544;51.666;6.634;2023-05-13T05:08:22;17.92;;;9.40;;
12958;SDS011;6544;51.666;6.634;2023-05-13T05:10:48;10.20;;;9.10;;
12958;SDS011;6544;51.666;6.634;2023-05-13T05:13:15;10.73;;;8.93;;
12958;SDS011;6544;51.666;6.634;2023-05-13T05:15:42;11.13;;;8.82;;
12958;SDS011;6544;51.666;6.634;2023-05-13T05:18:09;14.73;;;9.40;;
12958;SDS011;6544;51.666;6.634;2023-05-13T05:20:37;16.02;;;9.48;;
12958;SDS011;6544;51.666;6.634;2023-05-13T05:23:05;10.75;;;9.65;;
12958;SDS011;6544;51.666;6.634;2023-05-13T05:25:34;11.60;;;9.10;;
12958;SDS011;6544;51.666;6.634;2023-05-13T05:28:01;11.05;;;9.13;;
12958;SDS011;6544;51.666;6.634;2023-05-13T05:30:29;11.23;;;9.70;;
12958;SDS011;6544;51.666;6.634;2023-05-13T05:32:56;13.68;;;10.05;;
12958;SDS011;6544;51.666;6.634;2023-05-13T05:35:23;12.43;;;9.50;;
12958;SDS011;6544;51.666;6.634;2023-05-13T05:37:50;10.82;;;9.80;;
12958;SDS011;6544;51.666;6.634;2023-05-13T05:40:19;11.20;;;10.05;;
12958;SDS011;6544;51.666;6.634;2023-05-13T05:42:46;13.95;;;10.32;;
12958;SDS011;6544;51.666;6.634;2023-05-13T05:45:12;13.43;;;9.85;;
12958;SDS011;6544;51.666;6.634;2023-05-13T05:47:39;13.68;;;9.95;;
12958;SDS011;6544;51.666;6.634;2023-05-13T05:50:07;11.45;;;10.25;;
12958;SDS011;6544;51.666;6.634;2023-05-13T05:52:34;14.50;;;10.32;;
12958;SDS011;6544;51.666;6.634;2023-05-13T05:55:01;13.52;;;10.75;;
12958;SDS011;6544;51.666;6.634;2023-05-13T05:57:30;14.98;;;12.00;;
12958;SDS011;6544;51.666;6.634;2023-05-13T05:59:56;14.57;;;11.75;;
12958;SDS011;6544;51.666;6.634;2023-05-13T06:02:23;12.75;;;10.88;;
12958;SDS011;6544;51.666;6.634;2023-05-13T06:04:50;19.13;;;10.70;;
12958;SDS011;6544;51.666;6.634;2023-05-13T06:07:17;12.35;;;9.88;;
12958;SDS011;6544;51.666;6.634;2023-05-13T06:09:44;11.15;;;9.95;;
12958;SDS011;6544;51.666;6.634;2023-05-13T06:12:11;11.27;;;9.90;;
12958;SDS011;6544;51.666;6.634;2023-05-13T06:14:39;12.65;;;10.00;;
12958;SDS011;6544;51.666;6.634;2023-05-13T06:17:06;11.50;;;10.38;;
12958;SDS011;6544;51.666;6.634;2023-05-13T06:19:33;14.00;;;10.75;;
12958;SDS011;6544;51.666;6.634;2023-05-13T06:22:00;14.15;;;10.60;;
12958;SDS011;6544;51.666;6.634;2023-05-13T06:24:26;15.48;;;11.23;;
12958;SDS011;6544;51.666;6.634;2023-05-13T06:26:53;12.68;;;10.43;;
12958;SDS011;6544;51.666;6.634;2023-05-13T06:29:20;12.85;;;10.60;;
12958;SDS011;6544;51.666;6.634;2023-05-13T06:31:48;12.73;;;9.15;;
12958;SDS011;6544;51.666;6.634;2023-05-13T06:34:15;11.35;;;10.13;;
12958;SDS011;6544;51.666;6.634;2023-05-13T06:36:42;11.23;;;10.13;;
12958;SDS011;6544;51.666;6.634;2023-05-13T06:39:09;11.98;;;9.50;;
12958;SDS011;6544;51.666;6.634;2023-05-13T06:41:37;10.85;;;9.75;;
12958;SDS011;6544;51.666;6.634;2023-05-13T06:44:04;13.50;;;9.90;;
12958;SDS011;6544;51.666;6.634;2023-05-13T06:46:31;12.20;;;10.25;;
12958;SDS011;6544;51.666;6.634;2023-05-13T06:48:59;12.27;;;10.23;;
12958;SDS011;6544;51.666;6.634;2023-05-13T06:51:26;11.18;;;9.95;;
12958;SDS011;6544;51.666;6.634;2023-05-13T06:53:54;15.95;;;10.50;;
12958;SDS011;6544;51.666;6.634;2023-05-13T06:56:21;14.40;;;9.93;;
12958;SDS011;6544;51.666;6.634;2023-05-13T06:58:48;10.85;;;9.73;;
12958;SDS011;6544;51.666;6.634;2023-05-13T07:01:15;12.27;;;10.05;;
12958;SDS011;6544;51.666;6.634;2023-05-13T07:03:42;12.35;;;9.68;;
12958;SDS011;6544;51.666;6.634;2023-05-13T07:06:11;13.45;;;9.95;;
12958;SDS011;6544;51.666;6.634;2023-05-13T07:08:38;11.02;;;9.43;;
12958;SDS011;6544;51.666;6.634;2023-05-13T07:11:04;12.38;;;9.27;;
12958;SDS011;6544;51.666;6.634;2023-05-13T07:13:31;11.90;;;8.95;;
12958;SDS011;6544;51.666;6.634;2023-05-13T07:15:59;11.88;;;9.40;;
12958;SDS011;6544;51.666;6.634;2023-05-13T07:18:26;11.25;;;9.80;;
12958;SDS011;6544;51.666;6.634;2023-05-13T07:20:53;11.55;;;8.77;;
12958;SDS011;6544;51.666;6.634;2023-05-13T07:23:22;10.77;;;9.68;;
12958;SDS011;6544;51.666;6.634;2023-05-13T07:25:49;12.25;;;9.02;;
12958;SDS011;6544;51.666;6.634;2023-05-13T07:28:17;10.05;;;8.55;;
12958;SDS011;6544;51.666;6.634;2023-05-13T07:30:44;10.10;;;9.10;;
12958;SDS011;6544;51.666;6.634;2023-05-13T07:33:11;12.98;;;9.35;;
12958;SDS011;6544;51.666;6.634;2023-05-13T07:35:38;10.63;;;8.88;;
12958;SDS011;6544;51.666;6.634;2023-05-13T07:38:05;10.93;;;8.50;;
12958;SDS011;6544;51.666;6.634;2023-05-13T07:40:35;9.98;;;8.32;;
12958;SDS011;6544;51.666;6.634;2023-05-13T07:43:02;9.18;;;8.20;;
12958;SDS011;6544;51.666;6.634;2023-05-13T07:45:30;11.80;;;7.95;;
12958;SDS011;6544;51.666;6.634;2023-05-13T07:47:57;13.82;;;8.23;;
12958;SDS011;6544;51.666;6.634;2023-05-13T07:50:24;11.82;;;8.30;;
12958;SDS011;6544;51.666;6.634;2023-05-13T07:52:51;14.07;;;8.25;;
12958;SDS011;6544;51.666;6.634;2023-05-13T07:55:19;9.18;;;7.50;;
12958;SDS011;6544;51.666;6.634;2023-05-13T07:57:47;12.20;;;7.80;;
12958;SDS011;6544;51.666;6.634;2023-05-13T08:00:14;10.30;;;7.97;;
12958;SDS011;6544;51.666;6.634;2023-05-13T08:02:42;11.77;;;7.65;;
12958;SDS011;6544;51.666;6.634;2023-05-13T08:05:09;10.52;;;7.68;;
12958;SDS011;6544;51.666;6.634;2023-05-13T08:07:36;8.32;;;7.47;;
12958;SDS011;6544;51.666;6.634;2023-05-13T08:10:03;10.23;;;7.95;;
12958;SDS011;6544;51.666;6.634;2023-05-13T08:12:31;9.00;;;7.35;;
12958;SDS011;6544;51.666;6.634;2023-05-13T08:14:59;12.32;;;8.05;;
12958;SDS011;6544;51.666;6.634;2023-05-13T08:17:28;10.48;;;7.25;;
12958;SDS011;6544;51.666;6.634;2023-05-13T08:19:54;11.50;;;7.43;;
12958;SDS011;6544;51.666;6.634;2023-05-13T08:22:21;8.68;;;7.43;;
12958;SDS011;6544;51.666;6.634;2023-05-13T08:24:48;9.50;;;7.45;;
12958;SDS011;6544;51.666;6.634;2023-05-13T08:27:15;9.77;;;7.90;;
12958;SDS011;6544;51.666;6.634;2023-05-13T08:29:42;12.18;;;8.18;;
12958;SDS011;6544;51.666;6.634;2023-05-13T08:32:10;9.55;;;7.25;;
12958;SDS011;6544;51.666;6.634;2023-05-13T08:34:37;11.90;;;7.28;;
12958;SDS011;6544;51.666;6.634;2023-05-13T08:37:05;10.25;;;7.22;;
12958;SDS011;6544;51.666;6.634;2023-05-13T08:39:31;8.27;;;6.80;;
12958;SDS011;6544;51.666;6.634;2023-05-13T08:41:58;8.98;;;7.03;;
12958;SDS011;6544;51.666;6.634;2023-05-13T08:44:29;11.15;;;7.20;;
12958;SDS011;6544;51.666;6.634;2023-05-13T08:46:59;12.38;;;6.82;;
12958;SDS011;6544;51.666;6.634;2023-05-13T08:49:34;11.23;;;7.10;;
12958;SDS011;6544;51.666;6.634;2023-05-13T08:52:01;13.13;;;7.53;;
12958;SDS011;6544;51.666;6.634;2023-05-13T08:54:28;7.93;;;6.63;;
12958;SDS011;6544;51.666;6.634;2023-05-13T08:56:56;8.02;;;6.25;;
12958;SDS011;6544;51.666;6.634;2023-05-13T08:59:23;12.02;;;6.72;;
12958;SDS011;6544;51.666;6.634;2023-05-13T09:01:50;9.65;;;6.55;;
12958;SDS011;6544;51.666;6.634;2023-05-13T09:04:19;8.93;;;6.35;;
12958;SDS011;6544;51.666;6.634;2023-05-13T09:06:47;8.25;;;5.90;;
12958;SDS011;6544;51.666;6.634;2023-05-13T09:09:14;7.63;;;6.15;;
12958;SDS011;6544;51.666;6.634;2023-05-13T09:11:41;10.25;;;6.63;;
12958;SDS011;6544;51.666;6.634;2023-05-13T09:14:08;7.55;;;6.75;;
12958;SDS011;6544;51.666;6.634;2023-05-13T09:16:36;10.25;;;7.38;;
12958;SDS011;6544;51.666;6.634;2023-05-13T09:19:04;9.82;;;6.70;;
12958;SDS011;6544;51.666;6.634;2023-05-13T09:21:32;9.40;;;7.22;;
12958;SDS011;6544;51.666;6.634;2023-05-13T09:24:11;8.85;;;6.72;;
12958;SDS011;6544;51.666;6.634;2023-05-13T09:26:42;8.88;;;6.57;;
12958;SDS011;6544;51.666;6.634;2023-05-13T09:29:13;6.57;;;5.85;;
12958;SDS011;6544;51.666;6.634;2023-05-13T09:31:45;8.98;;;6.57;;
12958;SDS011;6544;51.666;6.634;2023-05-13T09:34:13;8.70;;;6.50;;
12958;SDS011;6544;51.666;6.634;2023-05-13T09:36:40;10.15;;;6.85;;
12958;SDS011;6544;51.666;6.634;2023-05-13T09:39:07;10.00;;;6.15;;
12958;SDS011;6544;51.666;6.634;2023-05-13T09:41:38;11.15;;;6.03;;
12958;SDS011;6544;51.666;6.634;2023-05-13T09:44:06;9.32;;;6.88;;
12958;SDS011;6544;51.666;6.634;2023-05-13T09:46:36;15.68;;;7.25;;
12958;SDS011;6544;51.666;6.634;2023-05-13T09:49:03;7.85;;;6.47;;
12958;SDS011;6544;51.666;6.634;2023-05-13T09:51:30;10.38;;;6.25;;
12958;SDS011;6544;51.666;6.634;2023-05-13T09:54:01;8.88;;;6.25;;
12958;SDS011;6544;51.666;6.634;2023-05-13T09:56:29;9.88;;;6.88;;
12958;SDS011;6544;51.666;6.634;2023-05-13T09:58:59;9.23;;;6.38;;
12958;SDS011;6544;51.666;6.634;2023-05-13T10:01:27;7.57;;;5.88;;
12958;SDS011;6544;51.666;6.634;2023-05-13T10:03:54;8.68;;;5.40;;
12958;SDS011;6544;51.666;6.634;2023-05-13T10:06:23;8.93;;;4.95;;
12958;SDS011;6544;51.666;6.634;2023-05-13T10:08:52;7.65;;;5.18;;
12958;SDS011;6544;51.666;6.634;2023-05-13T10:11:21;8.43;;;5.40;;
12958;SDS011;6544;51.666;6.634;2023-05-13T10:13:49;8.23;;;5.95;;
12958;SDS011;6544;51.666;6.634;2023-05-13T10:16:22;12.93;;;5.38;;
12958;SDS011;6544;51.666;6.634;2023-05-13T10:18:49;6.13;;;5.30;;
12958;SDS011;6544;51.666;6.634;2023-05-13T10:21:17;9.48;;;4.82;;
12958;SDS011;6544;51.666;6.634;2023-05-13T10:23:45;6.78;;;4.80;;
12958;SDS011;6544;51.666;6.634;2023-05-13T10:26:12;7.85;;;4.63;;
12958;SDS011;6544;51.666;6.634;2023-05-13T10:28:40;11.57;;;5.32;;
12958;SDS011;6544;51.666;6.634;2023-05-13T10:31:08;9.63;;;4.80;;
12958;SDS011;6544;51.666;6.634;2023-05-13T10:33:36;8.80;;;5.00;;
12958;SDS011;6544;51.666;6.634;2023-05-13T10:36:09;8.25;;;4.78;;
12958;SDS011;6544;51.666;6.634;2023-05-13T10:38:51;7.90;;;4.65;;
12958;SDS011;6544;51.666;6.634;2023-05-13T10:41:37;7.10;;;4.32;;
12958;SDS011;6544;51.666;6.634;2023-05-13T10:44:33;6.20;;;4.68;;
12958;SDS011;6544;51.666;6.634;2023-05-13T10:47:01;11.05;;;4.82;;
12958;SDS011;6544;51.666;6.634;2023-05-13T10:49:32;7.90;;;5.05;;
12958;SDS011;6544;51.666;6.634;2023-05-13T10:52:02;5.45;;;4.90;;
12958;SDS011;6544;51.666;6.634;2023-05-13T10:54:34;9.88;;;4.60;;
12958;SDS011;6544;51.666;6.634;2023-05-13T10:57:03;7.40;;;4.57;;
12958;SDS011;6544;51.666;6.634;2023-05-13T10:59:30;6.93;;;4.30;;
12958;SDS011;6544;51.666;6.634;2023-05-13T11:01:59;5.38;;;3.92;;
12958;SDS011;6544;51.666;6.634;2023-05-13T11:04:27;10.95;;;4.38;;
12958;SDS011;6544;51.666;6.634;2023-05-13T11:06:56;5.25;;;4.13;;
12958;SDS011;6544;51.666;6.634;2023-05-13T11:09:40;6.35;;;3.90;;
12958;SDS011;6544;51.666;6.634;2023-05-13T11:12:14;8.55;;;4.38;;
12958;SDS011;6544;51.666;6.634;2023-05-13T11:14:41;6.20;;;3.92;;
12958;SDS011;6544;51.666;6.634;2023-05-13T11:17:09;5.80;;;3.63;;
12958;SDS011;6544;51.666;6.634;2023-05-13T11:19:37;8.25;;;3.78;;
12958;SDS011;6544;51.666;6.634;2023-05-13T11:22:13;6.45;;;3.80;;
12958;SDS011;6544;51.666;6.634;2023-05-13T11:24:43;4.75;;;3.60;;
12958;SDS011;6544;51.666;6.634;2023-05-13T11:27:11;5.90;;;3.85;;
12958;SDS011;6544;51.666;6.634;2023-05-13T11:29:46;7.13;;;4.18;;
12958;SDS011;6544;51.666;6.634;2023-05-13T11:32:14;4.47;;;3.97;;
12958;SDS011;6544;51.666;6.634;2023-05-13T11:34:48;7.43;;;4.25;;
12958;SDS011;6544;51.666;6.634;2023-05-13T11:37:17;9.65;;;4.50;;
12958;SDS011;6544;51.666;6.634;2023-05-13T11:39:45;11.15;;;3.80;;
12958;SDS011;6544;51.666;6.634;2023-05-13T11:42:12;6.22;;;3.83;;
12958;SDS011;6544;51.666;6.634;2023-05-13T11:44:43;10.52;;;3.75;;
12958;SDS011;6544;51.666;6.634;2023-05-13T11:47:11;6.70;;;4.00;;
12958;SDS011;6544;51.666;6.634;2023-05-13T11:49:39;6.43;;;4.05;;
12958;SDS011;6544;51.666;6.634;2023-05-13T11:52:08;9.05;;;3.50;;
12958;SDS011;6544;51.666;6.634;2023-05-13T11:54:40;6.63;;;3.47;;
12958;SDS011;6544;51.666;6.634;2023-05-13T11:57:18;6.80;;;3.92;;
12958;SDS011;6544;51.666;6.634;2023-05-13T11:59:53;6.72;;;4.00;;
12958;SDS011;6544;51.666;6.634;2023-05-13T12:02:22;7.07;;;3.70;;
12958;SDS011;6544;51.666;6.634;2023-05-13T12:04:50;6.78;;;3.85;;
12958;SDS011;6544;51.666;6.634;2023-05-13T12:07:20;6.60;;;3.83;;
12958;SDS011;6544;51.666;6.634;2023-05-13T12:09:50;4.15;;;3.40;;
12958;SDS011;6544;51.666;6.634;2023-05-13T12:12:18;5.82;;;3.45;;
12958;SDS011;6544;51.666;6.634;2023-05-13T12:14:45;7.00;;;3.70;;
12958;SDS011;6544;51.666;6.634;2023-05-13T12:17:14;4.90;;;3.22;;
12958;SDS011;6544;51.666;6.634;2023-05-13T12:22:29;4.10;;;3.28;;
12958;SDS011;6544;51.666;6.634;2023-05-13T12:24:58;5.63;;;3.17;;
12958;SDS011;6544;51.666;6.634;2023-05-13T12:27:27;5.60;;;3.20;;
12958;SDS011;6544;51.666;6.634;2023-05-13T12:29:54;6.45;;;3.60;;
12958;SDS011;6544;51.666;6.634;2023-05-13T12:32:22;8.02;;;3.33;;
12958;SDS011;6544;51.666;6.634;2023-05-13T12:34:50;4.05;;;3.38;;
12958;SDS011;6544;51.666;6.634;2023-05-13T12:37:17;4.53;;;3.20;;
12958;SDS011;6544;51.666;6.634;2023-05-13T12:39:44;6.63;;;3.35;;
12958;SDS011;6544;51.666;6.634;2023-05-13T12:42:16;5.05;;;3.22;;
12958;SDS011;6544;51.666;6.634;2023-05-13T12:44:44;5.95;;;3.20;;
12958;SDS011;6544;51.666;6.634;2023-05-13T12:47:11;4.25;;;3.38;;
12958;SDS011;6544;51.666;6.634;2023-05-13T12:49:52;4.82;;;3.20;;
12958;SDS011;6544;51.666;6.634;2023-05-13T12:52:19;5.18;;;3.15;;
12958;SDS011;6544;51.666;6.634;2023-05-13T12:54:46;7.80;;;3.63;;
12958;SDS011;6544;51.666;6.634;2023-05-13T12:57:15;8.98;;;5.35;;
12958;SDS011;6544;51.666;6.634;2023-05-13T12:59:44;6.30;;;3.20;;
12958;SDS011;6544;51.666;6.634;2023-05-13T13:02:11;4.07;;;3.17;;
12958;SDS011;6544;51.666;6.634;2023-05-13T13:04:38;5.63;;;3.50;;
12958;SDS011;6544;51.666;6.634;2023-05-13T13:07:05;10.07;;;7.13;;
12958;SDS011;6544;51.666;6.634;2023-05-13T13:09:36;6.88;;;3.90;;
12958;SDS011;6544;51.666;6.634;2023-05-13T13:12:03;4.82;;;3.00;;
12958;SDS011;6544;51.666;6.634;2023-05-13T13:14:32;7.03;;;3.30;;
12958;SDS011;6544;51.666;6.634;2023-05-13T13:16:58;7.63;;;3.20;;
12958;SDS011;6544;51.666;6.634;2023-05-13T13:19:25;5.30;;;3.00;;
12958;SDS011;6544;51.666;6.634;2023-05-13T13:21:52;5.40;;;3.22;;
12958;SDS011;6544;51.666;6.634;2023-05-13T13:24:19;4.05;;;2.83;;
12958;SDS011;6544;51.666;6.634;2023-05-13T13:26:46;4.25;;;2.92;;
12958;SDS011;6544;51.666;6.634;2023-05-13T13:29:14;6.72;;;4.40;;
12958;SDS011;6544;51.666;6.634;2023-05-13T13:31:42;8.43;;;3.17;;
12958;SDS011;6544;51.666;6.634;2023-05-13T13:34:09;7.53;;;3.20;;
12958;SDS011;6544;51.666;6.634;2023-05-13T13:36:37;5.60;;;3.28;;
12958;SDS011;6544;51.666;6.634;2023-05-13T13:39:04;5.00;;;3.00;;
12958;SDS011;6544;51.666;6.634;2023-05-13T13:41:31;6.93;;;3.30;;
12958;SDS011;6544;51.666;6.634;2023-05-13T13:43:58;6.57;;;3.33;;
12958;SDS011;6544;51.666;6.634;2023-05-13T13:46:25;5.72;;;3.22;;
12958;SDS011;6544;51.666;6.634;2023-05-13T13:48:53;5.28;;;2.90;;
12958;SDS011;6544;51.666;6.634;2023-05-13T13:51:20;6.88;;;3.08;;
12958;SDS011;6544;51.666;6.634;2023-05-13T13:53:47;5.22;;;3.47;;
12958;SDS011;6544;51.666;6.634;2023-05-13T13:56:14;11.43;;;6.90;;
12958;SDS011;6544;51.666;6.634;2023-05-13T13:58:41;7.88;;;6.43;;
12958;SDS011;6544;51.666;6.634;2023-05-13T14:01:08;5.07;;;2.88;;
12958;SDS011;6544;51.666;6.634;2023-05-13T14:03:36;5.68;;;3.20;;
12958;SDS011;6544;51.666;6.634;2023-05-13T14:06:04;8.15;;;5.22;;
12958;SDS011;6544;51.666;6.634;2023-05-13T14:08:31;4.03;;;3.22;;
12958;SDS011;6544;51.666;6.634;2023-05-13T14:10:58;7.00;;;3.40;;
12958;SDS011;6544;51.666;6.634;2023-05-13T14:13:25;6.47;;;3.33;;
12958;SDS011;6544;51.666;6.634;2023-05-13T14:15:53;6.18;;;3.45;;
12958;SDS011;6544;51.666;6.634;2023-05-13T14:18:20;6.80;;;3.30;;
12958;SDS011;6544;51.666;6.634;2023-05-13T14:20:47;4.35;;;3.10;;
12958;SDS011;6544;51.666;6.634;2023-05-13T14:23:16;5.68;;;3.17;;
12958;SDS011;6544;51.666;6.634;2023-05-13T14:25:52;9.23;;;3.58;;
12958;SDS011;6544;51.666;6.634;2023-05-13T14:28:18;6.25;;;3.35;;
12958;SDS011;6544;51.666;6.634;2023-05-13T14:30:45;6.00;;;3.67;;
12958;SDS011;6544;51.666;6.634;2023-05-13T14:33:12;4.97;;;3.42;;
12958;SDS011;6544;51.666;6.634;2023-05-13T14:35:39;7.25;;;3.30;;
12958;SDS011;6544;51.666;6.634;2023-05-13T14:38:06;6.93;;;3.50;;
12958;SDS011;6544;51.666;6.634;2023-05-13T14:40:35;7.55;;;3.47;;
12958;SDS011;6544;51.666;6.634;2023-05-13T14:43:03;4.57;;;3.22;;
12958;SDS011;6544;51.666;6.634;2023-05-13T14:45:30;4.72;;;3.15;;
12958;SDS011;6544;51.666;6.634;2023-05-13T14:47:56;4.70;;;3.20;;
12958;SDS011;6544;51.666;6.634;2023-05-13T14:50:23;6.80;;;3.17;;
12958;SDS011;6544;51.666;6.634;2023-05-13T14:52:50;9.40;;;3.45;;
12958;SDS011;6544;51.666;6.634;2023-05-13T14:55:17;6.43;;;4.00;;
12958;SDS011;6544;51.666;6.634;2023-05-13T14:57:45;4.18;;;3.30;;
12958;SDS011;6544;51.666;6.634;2023-05-13T15:00:13;3.97;;;3.10;;
12958;SDS011;6544;51.666;6.634;2023-05-13T15:02:40;5.65;;;3.50;;